Time;durP1;ratioP1;P1;durP2;ratioP2;P2;SDS_P1;SDS_P2;PMS_P1;PMS_P2;Temp;Humidity;BMP_temperature;BMP_pressure;BME280_temperature;BME280_humidity;BME280_pressure;Samples;Min_cycle;Max_cycle;Signal;HPM_P1;HPM_P2
2022/02/21 00:01:45;;;;;;;1.10;0.50;;;;;;;;;;5074601;28;24581;-55
2022/02/21 00:04:10;;;;;;;0.68;0.65;;;;;;;;;;5068331;28;24519;-56
2022/02/21 00:06:36;;;;;;;0.82;0.60;;;;;;;;;;5065005;28;24960;-55
2022/02/21 00:09:01;;;;;;;0.60;0.60;;;;;;;;;;5072233;28;24453;-55
2022/02/21 00:11:27;;;;;;;1.17;0.70;;;;;;;;;;5069248;28;24422;-55
2022/02/21 00:13:52;;;;;;;0.93;0.73;;;;;;;;;;5056661;28;24415;-54
2022/02/21 00:16:17;;;;;;;0.70;0.70;;;;;;;;;;5068152;28;24804;-55
2022/02/21 00:18:42;;;;;;;1.20;0.90;;;;;;;;;;5056960;28;24664;-55
2022/02/21 00:21:07;;;;;;;1.10;0.90;;;;;;;;;;5062669;28;24423;-55
2022/02/21 00:23:32;;;;;;;1.08;0.70;;;;;;;;;;5063863;28;24422;-55
2022/02/21 00:25:58;;;;;;;2.15;1.00;;;;;;;;;;5065976;28;25037;-55
2022/02/21 00:28:23;;;;;;;1.30;0.90;;;;;;;;;;5064104;28;24407;-56
2022/02/21 00:30:48;;;;;;;2.50;1.00;;;;;;;;;;5075248;28;24446;-56
2022/02/21 00:33:13;;;;;;;3.58;1.15;;;;;;;;;;5064541;28;24422;-56
2022/02/21 00:35:38;;;;;;;1.20;1.10;;;;;;;;;;5064370;28;24483;-55
2022/02/21 00:38:03;;;;;;;2.40;1.10;;;;;;;;;;5067143;28;25008;-55
2022/02/21 00:40:29;;;;;;;1.42;1.00;;;;;;;;;;5060786;28;24853;-56
2022/02/21 00:42:54;;;;;;;1.10;1.00;;;;;;;;;;5068346;28;24877;-55
2022/02/21 00:45:19;;;;;;;3.40;1.27;;;;;;;;;;5064031;28;25084;-55
2022/02/21 00:47:44;;;;;;;3.50;1.10;;;;;;;;;;5064971;28;24418;-55
2022/02/21 00:50:10;;;;;;;3.08;1.00;;;;;;;;;;5061149;28;24577;-56
2022/02/21 00:52:35;;;;;;;1.90;1.00;;;;;;;;;;5063866;28;24484;-55
2022/02/21 00:55:00;;;;;;;2.20;1.20;;;;;;;;;;5064661;28;24967;-56
2022/02/21 00:57:25;;;;;;;1.40;1.00;;;;;;;;;;5063124;28;24996;-56
2022/02/21 00:59:50;;;;;;;1.98;1.10;;;;;;;;;;5063327;28;24916;-56
2022/02/21 01:02:15;;;;;;;1.90;1.10;;;;;;;;;;5071211;28;24426;-56
2022/02/21 01:04:41;;;;;;;2.65;1.13;;;;;;;;;;5068169;28;24918;-56
2022/02/21 01:07:06;;;;;;;1.53;1.20;;;;;;;;;;5067914;28;24410;-55
2022/02/21 01:09:31;;;;;;;1.40;1.13;;;;;;;;;;5067273;28;25047;-56
2022/02/21 01:11:56;;;;;;;1.20;1.00;;;;;;;;;;5066019;28;24506;-56
2022/02/21 01:14:21;;;;;;;2.40;1.10;;;;;;;;;;5067264;28;24418;-56
2022/02/21 01:16:47;;;;;;;1.30;1.03;;;;;;;;;;5063256;28;24498;-56
2022/02/21 01:19:12;;;;;;;1.50;0.97;;;;;;;;;;5067557;28;24411;-56
2022/02/21 01:21:37;;;;;;;2.80;1.00;;;;;;;;;;5066439;28;25103;-56
2022/02/21 01:24:02;;;;;;;1.90;1.00;;;;;;;;;;5067047;28;25167;-56
2022/02/21 01:26:27;;;;;;;2.40;1.20;;;;;;;;;;5067180;28;25018;-56
2022/02/21 01:28:53;;;;;;;1.92;1.10;;;;;;;;;;5067302;28;24792;-56
2022/02/21 01:31:18;;;;;;;1.20;0.90;;;;;;;;;;5066053;28;24445;-56
2022/02/21 01:33:44;;;;;;;1.80;1.08;;;;;;;;;;5066044;28;24449;-56
2022/02/21 01:36:09;;;;;;;1.50;0.90;;;;;;;;;;5067284;28;24426;-57
2022/02/21 01:38:34;;;;;;;1.53;1.00;;;;;;;;;;5066890;28;24422;-56
2022/02/21 01:40:59;;;;;;;1.25;0.70;;;;;;;;;;5067255;28;24403;-56
2022/02/21 01:43:24;;;;;;;1.20;0.90;;;;;;;;;;5065322;28;24423;-56
2022/02/21 01:45:49;;;;;;;2.30;1.10;;;;;;;;;;5066682;28;24877;-56
2022/02/21 01:48:15;;;;;;;1.10;0.70;;;;;;;;;;5066989;28;24423;-56
2022/02/21 01:50:40;;;;;;;0.70;0.70;;;;;;;;;;5066893;28;24521;-56
2022/02/21 01:53:05;;;;;;;1.00;0.70;;;;;;;;;;5066077;28;24436;-55
2022/02/21 01:55:30;;;;;;;0.97;0.80;;;;;;;;;;5067733;28;24961;-55
2022/02/21 01:57:56;;;;;;;0.95;0.70;;;;;;;;;;5067035;28;24817;-56
2022/02/21 02:00:21;;;;;;;1.20;0.80;;;;;;;;;;5058393;28;24534;-56
2022/02/21 02:02:46;;;;;;;1.93;0.90;;;;;;;;;;5056906;28;24467;-56
2022/02/21 02:05:15;;;;;;;1.50;0.70;;;;;;;;;;5067259;28;24541;-55
2022/02/21 02:07:41;;;;;;;1.60;0.80;;;;;;;;;;5066245;28;24541;-56
2022/02/21 02:10:07;;;;;;;0.70;0.50;;;;;;;;;;5065336;28;24984;-56
2022/02/21 02:12:32;;;;;;;0.80;0.70;;;;;;;;;;5064248;28;24426;-55
2022/02/21 02:14:57;;;;;;;0.60;0.50;;;;;;;;;;5065867;28;24829;-56
2022/02/21 02:17:23;;;;;;;1.13;0.90;;;;;;;;;;5066806;28;24445;-56
2022/02/21 02:19:48;;;;;;;0.90;0.60;;;;;;;;;;5066016;28;24410;-56
2022/02/21 02:22:14;;;;;;;0.90;0.77;;;;;;;;;;5065623;28;24418;-56
2022/02/21 02:24:41;;;;;;;2.40;0.60;;;;;;;;;;5062331;28;24942;-55
2022/02/21 02:27:08;;;;;;;0.93;0.57;;;;;;;;;;5065490;28;24499;-56
2022/02/21 02:29:34;;;;;;;0.50;0.50;;;;;;;;;;5065942;28;24975;-56
2022/02/21 02:31:59;;;;;;;2.00;0.80;;;;;;;;;;5065725;28;24426;-56
2022/02/21 02:34:24;;;;;;;0.95;0.70;;;;;;;;;;5061966;28;24403;-56
2022/02/21 02:36:51;;;;;;;0.90;0.70;;;;;;;;;;5066407;28;24953;-56
2022/02/21 02:39:16;;;;;;;1.10;0.70;;;;;;;;;;5067177;28;24818;-56
2022/02/21 02:41:41;;;;;;;1.20;0.50;;;;;;;;;;5053441;28;24437;-55
2022/02/21 02:44:06;;;;;;;1.23;0.70;;;;;;;;;;5065450;28;24509;-56
2022/02/21 02:46:32;;;;;;;0.60;0.50;;;;;;;;;;5065653;28;24439;-55
2022/02/21 02:48:57;;;;;;;0.83;0.67;;;;;;;;;;5062425;28;24488;-56
2022/02/21 02:51:22;;;;;;;0.70;0.50;;;;;;;;;;5066502;28;24422;-56
2022/02/21 02:53:47;;;;;;;0.60;0.47;;;;;;;;;;5065586;28;24776;-56
2022/02/21 02:56:12;;;;;;;1.80;0.60;;;;;;;;;;5065168;28;24422;-56
2022/02/21 02:58:37;;;;;;;0.60;0.50;;;;;;;;;;5061598;28;24437;-56
2022/02/21 03:01:03;;;;;;;0.65;0.60;;;;;;;;;;5064934;28;24835;-56
2022/02/21 03:03:28;;;;;;;0.70;0.60;;;;;;;;;;5063082;28;24429;-56
2022/02/21 03:05:56;;;;;;;0.88;0.45;;;;;;;;;;5063678;28;24964;-56
2022/02/21 03:08:21;;;;;;;0.70;0.60;;;;;;;;;;5063880;28;24418;-56
2022/02/21 03:10:47;;;;;;;1.00;0.60;;;;;;;;;;5065520;28;24423;-55
2022/02/21 03:13:12;;;;;;;0.80;0.60;;;;;;;;;;5061331;28;24453;-55
2022/02/21 03:15:37;;;;;;;1.10;0.60;;;;;;;;;;5057649;28;24421;-56
2022/02/21 03:18:02;;;;;;;0.80;0.50;;;;;;;;;;5062468;28;24945;-56
2022/02/21 03:20:27;;;;;;;0.90;0.50;;;;;;;;;;5065118;28;24434;-56
2022/02/21 03:22:53;;;;;;;1.10;0.50;;;;;;;;;;5065711;28;25006;-55
2022/02/21 03:25:18;;;;;;;0.77;0.60;;;;;;;;;;5061360;28;24415;-57
2022/02/21 03:27:44;;;;;;;1.20;0.50;;;;;;;;;;5064587;28;24426;-56
2022/02/21 03:30:09;;;;;;;1.30;0.60;;;;;;;;;;5063516;28;24488;-55
2022/02/21 03:32:35;;;;;;;2.03;0.50;;;;;;;;;;5064278;28;24449;-56
2022/02/21 03:35:00;;;;;;;1.50;0.50;;;;;;;;;;5061662;28;24944;-56
2022/02/21 03:37:25;;;;;;;0.67;0.50;;;;;;;;;;5064761;28;24944;-56
2022/02/21 03:39:50;;;;;;;0.57;0.50;;;;;;;;;;5063596;28;25117;-56
2022/02/21 03:42:15;;;;;;;0.55;0.50;;;;;;;;;;5064067;28;24430;-56
2022/02/21 03:44:41;;;;;;;0.80;0.50;;;;;;;;;;5063435;28;25037;-56
2022/02/21 03:47:06;;;;;;;0.80;0.50;;;;;;;;;;5048789;28;24423;-56
2022/02/21 03:49:32;;;;;;;0.93;0.70;;;;;;;;;;5066502;28;24996;-55
2022/02/21 03:51:57;;;;;;;0.70;0.45;;;;;;;;;;5066031;28;24793;-55
2022/02/21 03:54:22;;;;;;;1.23;0.50;;;;;;;;;;5067727;28;24426;-56
2022/02/21 03:56:47;;;;;;;1.42;0.57;;;;;;;;;;5068317;28;24509;-56
2022/02/21 03:59:12;;;;;;;2.50;0.77;;;;;;;;;;5061552;28;24569;-56
2022/02/21 04:01:37;;;;;;;1.50;0.70;;;;;;;;;;5064499;28;24407;-56
2022/02/21 04:04:02;;;;;;;2.25;0.98;;;;;;;;;;5064830;28;24429;-57
2022/02/21 04:06:28;;;;;;;1.20;0.70;;;;;;;;;;5067463;28;24458;-57
2022/02/21 04:08:53;;;;;;;0.90;0.70;;;;;;;;;;5066937;28;24423;-57
2022/02/21 04:11:18;;;;;;;1.60;0.63;;;;;;;;;;5059431;28;24956;-57
2022/02/21 04:13:43;;;;;;;1.00;0.60;;;;;;;;;;5065549;28;24446;-57
2022/02/21 04:16:08;;;;;;;1.00;0.63;;;;;;;;;;5068602;28;24528;-57
2022/02/21 04:18:33;;;;;;;1.80;0.60;;;;;;;;;;5058144;28;24477;-56
2022/02/21 04:20:58;;;;;;;1.50;0.70;;;;;;;;;;5068641;28;25019;-56
2022/02/21 04:23:24;;;;;;;1.00;0.60;;;;;;;;;;5061329;28;24555;-57
2022/02/21 04:25:49;;;;;;;1.50;0.50;;;;;;;;;;5063949;28;24476;-56
2022/02/21 04:28:17;;;;;;;0.80;0.60;;;;;;;;;;5062209;28;24434;-57
2022/02/21 04:30:43;;;;;;;1.20;0.52;;;;;;;;;;5063994;28;24435;-57
2022/02/21 04:33:08;;;;;;;1.00;0.60;;;;;;;;;;5064241;28;24457;-57
2022/02/21 04:35:33;;;;;;;1.70;0.57;;;;;;;;;;5064095;28;24967;-57
2022/02/21 04:37:58;;;;;;;1.10;0.60;;;;;;;;;;5067449;28;24455;-56
2022/02/21 04:40:25;;;;;;;1.50;0.60;;;;;;;;;;5067687;28;24480;-57
2022/02/21 04:42:52;;;;;;;0.55;0.50;;;;;;;;;;5065519;28;24526;-57
2022/02/21 04:45:18;;;;;;;1.10;0.65;;;;;;;;;;5067685;28;25077;-56
2022/02/21 04:47:43;;;;;;;0.60;0.60;;;;;;;;;;5058409;28;24426;-57
2022/02/21 04:50:08;;;;;;;1.00;0.57;;;;;;;;;;5066542;28;24777;-57
2022/02/21 04:52:34;;;;;;;0.80;0.50;;;;;;;;;;5059149;28;24422;-58
2022/02/21 04:54:59;;;;;;;0.80;0.50;;;;;;;;;;5065891;28;25041;-57
2022/02/21 04:57:24;;;;;;;0.60;0.50;;;;;;;;;;5066543;28;25407;-58
2022/02/21 04:59:50;;;;;;;0.50;0.50;;;;;;;;;;5065586;28;24422;-57
2022/02/21 05:02:15;;;;;;;1.20;0.60;;;;;;;;;;5059386;28;24420;-57
2022/02/21 05:04:40;;;;;;;1.70;0.70;;;;;;;;;;5062687;28;24461;-57
2022/02/21 05:07:05;;;;;;;1.53;0.80;;;;;;;;;;5066935;28;24461;-57
2022/02/21 05:09:30;;;;;;;0.80;0.70;;;;;;;;;;5066090;28;24445;-57
2022/02/21 05:11:55;;;;;;;0.65;0.50;;;;;;;;;;5066117;28;24423;-57
2022/02/21 05:14:21;;;;;;;1.20;0.50;;;;;;;;;;5063595;28;24541;-57
2022/02/21 05:16:46;;;;;;;1.00;0.50;;;;;;;;;;5065562;28;24434;-57
2022/02/21 05:19:11;;;;;;;0.93;0.43;;;;;;;;;;5066793;28;24766;-57
2022/02/21 05:21:36;;;;;;;1.17;0.50;;;;;;;;;;5066818;28;24580;-57
2022/02/21 05:24:01;;;;;;;1.50;0.50;;;;;;;;;;5066541;28;24415;-56
2022/02/21 05:26:26;;;;;;;2.30;0.60;;;;;;;;;;5061252;28;24427;-57
2022/02/21 05:28:52;;;;;;;0.57;0.50;;;;;;;;;;5065183;28;24537;-57
2022/02/21 05:31:17;;;;;;;0.80;0.60;;;;;;;;;;5063966;28;24516;-57
2022/02/21 05:33:43;;;;;;;1.00;0.60;;;;;;;;;;5064545;28;25317;-57
2022/02/21 05:36:08;;;;;;;1.10;0.50;;;;;;;;;;5063519;28;24421;-57
2022/02/21 05:38:33;;;;;;;1.60;0.80;;;;;;;;;;5065378;28;24413;-57
2022/02/21 05:40:58;;;;;;;1.30;0.70;;;;;;;;;;5064630;28;24430;-57
2022/02/21 05:43:23;;;;;;;0.90;0.70;;;;;;;;;;5065154;28;24423;-58
2022/02/21 05:45:48;;;;;;;0.90;0.60;;;;;;;;;;5061394;28;24446;-57
2022/02/21 05:48:13;;;;;;;1.42;0.70;;;;;;;;;;5051619;28;25040;-58
2022/02/21 05:50:39;;;;;;;1.40;0.50;;;;;;;;;;5066055;28;24427;-58
2022/02/21 05:53:04;;;;;;;0.90;0.60;;;;;;;;;;5062502;28;25018;-57
2022/02/21 05:55:29;;;;;;;1.07;0.60;;;;;;;;;;5069836;28;25031;-57
2022/02/21 05:57:58;;;;;;;0.90;0.80;;;;;;;;;;5064004;28;24526;-58
2022/02/21 06:00:23;;;;;;;0.82;0.80;;;;;;;;;;5062337;28;24527;-58
2022/02/21 06:02:48;;;;;;;1.40;0.60;;;;;;;;;;5053626;28;24861;-57
2022/02/21 06:05:13;;;;;;;0.90;0.80;;;;;;;;;;5058919;28;24904;-58
2022/02/21 06:07:38;;;;;;;1.40;0.80;;;;;;;;;;5054691;28;25349;-58
2022/02/21 06:10:04;;;;;;;1.13;0.77;;;;;;;;;;5065148;28;25268;-57
2022/02/21 06:12:29;;;;;;;1.60;0.60;;;;;;;;;;5064888;28;25028;-57
2022/02/21 06:14:54;;;;;;;0.90;0.70;;;;;;;;;;5059706;28;24425;-58
2022/02/21 06:17:19;;;;;;;1.40;0.80;;;;;;;;;;5055805;28;24511;-57
2022/02/21 06:19:44;;;;;;;0.97;0.70;;;;;;;;;;5071156;28;24817;-57
2022/02/21 06:22:09;;;;;;;2.72;1.00;;;;;;;;;;5065859;28;25008;-57
2022/02/21 06:24:35;;;;;;;1.10;0.80;;;;;;;;;;5065855;28;25049;-58
2022/02/21 06:27:01;;;;;;;0.70;0.60;;;;;;;;;;5063054;28;24411;-57
2022/02/21 06:29:27;;;;;;;1.40;0.98;;;;;;;;;;5063005;28;24469;-57
2022/02/21 06:31:52;;;;;;;0.70;0.60;;;;;;;;;;5057287;28;24809;-58
2022/02/21 06:34:23;;;;;;;1.50;0.80;;;;;;;;;;5056402;28;24519;-58
2022/02/21 06:36:48;;;;;;;1.30;0.90;;;;;;;;;;5056870;28;25716;-58
2022/02/21 06:39:15;;;;;;;1.30;0.90;;;;;;;;;;5062028;28;25078;-58
2022/02/21 06:41:40;;;;;;;0.80;0.80;;;;;;;;;;5058025;28;24629;-58
2022/02/21 06:44:05;;;;;;;1.30;0.80;;;;;;;;;;5058326;28;24956;-57
2022/02/21 06:46:30;;;;;;;1.80;0.80;;;;;;;;;;5060115;28;24531;-57
2022/02/21 06:48:55;;;;;;;1.60;0.80;;;;;;;;;;5061887;28;24414;-57
2022/02/21 06:51:21;;;;;;;1.58;1.00;;;;;;;;;;5060478;28;25102;-56
2022/02/21 06:53:46;;;;;;;1.23;0.73;;;;;;;;;;5058789;28;24449;-57
2022/02/21 06:56:11;;;;;;;1.70;0.77;;;;;;;;;;5061965;28;24440;-56
2022/02/21 06:58:36;;;;;;;0.90;0.70;;;;;;;;;;5062178;28;24549;-56
2022/02/21 07:01:01;;;;;;;1.07;0.90;;;;;;;;;;5061700;28;24446;-57
2022/02/21 07:03:26;;;;;;;1.40;0.90;;;;;;;;;;5062062;28;24433;-57
2022/02/21 07:05:52;;;;;;;1.30;0.90;;;;;;;;;;5058121;28;24434;-57
2022/02/21 07:08:17;;;;;;;1.50;1.00;;;;;;;;;;5048420;28;24552;-57
2022/02/21 07:10:42;;;;;;;2.60;1.10;;;;;;;;;;5049424;28;24423;-57
2022/02/21 07:13:07;;;;;;;1.90;1.00;;;;;;;;;;5059289;28;24430;-57
2022/02/21 07:15:33;;;;;;;1.43;0.90;;;;;;;;;;5061076;28;24866;-57
2022/02/21 07:17:58;;;;;;;1.43;0.90;;;;;;;;;;5056004;28;24407;-56
2022/02/21 07:20:25;;;;;;;1.57;0.93;;;;;;;;;;5063477;28;24518;-56
2022/02/21 07:22:50;;;;;;;1.88;0.90;;;;;;;;;;5064363;28;24407;-58
2022/02/21 07:25:16;;;;;;;2.17;0.90;;;;;;;;;;5065614;28;24438;-57
2022/02/21 07:27:42;;;;;;;1.50;0.90;;;;;;;;;;5066785;28;24457;-57
2022/02/21 07:30:08;;;;;;;1.40;1.00;;;;;;;;;;5059338;28;24426;-57
2022/02/21 07:32:34;;;;;;;1.90;0.98;;;;;;;;;;5061802;28;24422;-57
2022/02/21 07:34:59;;;;;;;1.90;0.90;;;;;;;;;;5061153;28;24775;-57
2022/02/21 07:37:24;;;;;;;1.20;1.10;;;;;;;;;;5056553;28;24423;-56
2022/02/21 07:39:49;;;;;;;3.20;1.20;;;;;;;;;;5065383;28;24462;-57
2022/02/21 07:42:14;;;;;;;1.70;0.70;;;;;;;;;;5066866;28;25144;-57
2022/02/21 07:44:39;;;;;;;1.00;0.73;;;;;;;;;;5068946;28;24489;-55
2022/02/21 07:47:05;;;;;;;0.90;0.80;;;;;;;;;;5069099;28;24445;-56
2022/02/21 07:49:30;;;;;;;2.40;1.10;;;;;;;;;;5069390;28;24399;-56
2022/02/21 07:51:56;;;;;;;1.42;0.90;;;;;;;;;;5069336;28;24410;-56
2022/02/21 07:54:21;;;;;;;1.10;1.00;;;;;;;;;;5068824;28;24402;-56
2022/02/21 07:56:46;;;;;;;1.50;0.90;;;;;;;;;;5069003;28;24387;-56
2022/02/21 07:59:12;;;;;;;0.90;0.90;;;;;;;;;;5069696;28;24387;-56
2022/02/21 08:01:37;;;;;;;1.27;0.80;;;;;;;;;;5069405;28;25019;-56
2022/02/21 08:04:02;;;;;;;2.00;0.90;;;;;;;;;;5069394;28;24399;-56
2022/02/21 08:06:27;;;;;;;1.20;1.00;;;;;;;;;;5069034;28;24682;-56
2022/02/21 08:08:52;;;;;;;1.60;0.90;;;;;;;;;;5069436;28;24391;-56
2022/02/21 08:11:18;;;;;;;1.30;1.20;;;;;;;;;;5068874;28;24467;-56
2022/02/21 08:13:44;;;;;;;1.73;1.20;;;;;;;;;;5068577;28;25093;-56
2022/02/21 08:16:09;;;;;;;1.70;1.10;;;;;;;;;;5069118;28;24391;-56
2022/02/21 08:18:35;;;;;;;3.00;1.20;;;;;;;;;;5068915;28;24944;-56
2022/02/21 08:21:00;;;;;;;1.67;1.10;;;;;;;;;;5069051;28;24399;-56
2022/02/21 08:23:25;;;;;;;2.60;1.60;;;;;;;;;;5066473;28;24398;-56
2022/02/21 08:25:51;;;;;;;3.40;1.30;;;;;;;;;;5068914;28;24919;-56
2022/02/21 08:28:16;;;;;;;2.63;1.50;;;;;;;;;;5068483;28;24985;-56
2022/02/21 08:30:41;;;;;;;4.93;1.60;;;;;;;;;;5068624;28;24421;-56
2022/02/21 08:33:06;;;;;;;2.60;1.40;;;;;;;;;;5068542;28;24550;-56
2022/02/21 08:35:31;;;;;;;1.97;1.40;;;;;;;;;;5068799;28;24734;-56
2022/02/21 08:37:56;;;;;;;3.00;1.70;;;;;;;;;;5068875;28;24472;-56
2022/02/21 08:40:22;;;;;;;3.23;1.40;;;;;;;;;;5068425;28;24403;-56
2022/02/21 08:42:47;;;;;;;3.25;1.70;;;;;;;;;;5068371;28;24430;-56
2022/02/21 08:45:13;;;;;;;4.33;1.60;;;;;;;;;;5068342;28;25159;-56
2022/02/21 08:47:39;;;;;;;4.65;1.70;;;;;;;;;;5068284;28;24506;-56
2022/02/21 08:50:05;;;;;;;3.42;1.60;;;;;;;;;;5068213;28;24395;-56
2022/02/21 08:52:31;;;;;;;2.67;1.50;;;;;;;;;;5068635;28;24395;-56
2022/02/21 08:54:56;;;;;;;3.22;1.20;;;;;;;;;;5068315;28;25136;-56
2022/02/21 08:57:22;;;;;;;1.23;1.00;;;;;;;;;;5068071;28;24667;-56
2022/02/21 08:59:47;;;;;;;2.78;1.10;;;;;;;;;;5068482;28;24792;-56
2022/02/21 09:02:13;;;;;;;1.57;1.10;;;;;;;;;;5065988;28;25019;-56
2022/02/21 09:04:38;;;;;;;3.38;1.20;;;;;;;;;;5068222;28;24379;-55
2022/02/21 09:07:03;;;;;;;3.10;1.30;;;;;;;;;;5067986;28;24457;-57
2022/02/21 09:09:28;;;;;;;1.90;1.23;;;;;;;;;;5067738;28;24379;-57
2022/02/21 09:11:53;;;;;;;1.03;0.93;;;;;;;;;;5068000;28;24511;-56
2022/02/21 09:14:18;;;;;;;2.10;1.20;;;;;;;;;;5067444;28;24521;-56
2022/02/21 09:16:44;;;;;;;2.47;1.30;;;;;;;;;;5067936;28;24398;-56
2022/02/21 09:19:09;;;;;;;1.73;1.10;;;;;;;;;;5068054;28;24405;-55
2022/02/21 09:21:34;;;;;;;2.00;1.10;;;;;;;;;;5068119;28;24464;-55
2022/02/21 09:24:00;;;;;;;2.08;1.30;;;;;;;;;;5067316;28;24549;-56
2022/02/21 09:26:27;;;;;;;1.97;1.10;;;;;;;;;;5067021;28;24517;-56
2022/02/21 09:28:52;;;;;;;2.67;1.20;;;;;;;;;;5067762;28;24402;-56
2022/02/21 09:31:17;;;;;;;3.00;1.50;;;;;;;;;;5067538;28;24434;-57
2022/02/21 09:33:42;;;;;;;3.00;1.20;;;;;;;;;;5066861;28;24448;-57
2022/02/21 09:36:07;;;;;;;2.73;1.30;;;;;;;;;;5067208;28;24405;-56
2022/02/21 09:38:32;;;;;;;2.70;1.40;;;;;;;;;;5067277;28;24383;-56
2022/02/21 09:40:58;;;;;;;2.40;1.20;;;;;;;;;;5065036;28;24933;-56
2022/02/21 09:43:26;;;;;;;3.37;1.20;;;;;;;;;;5066846;28;24407;-57
2022/02/21 09:45:58;;;;;;;1.98;1.10;;;;;;;;;;5044049;28;24974;-56
2022/02/21 09:48:24;;;;;;;3.70;1.60;;;;;;;;;;5045874;28;24456;-58
2022/02/21 09:50:49;;;;;;;3.60;1.67;;;;;;;;;;5065194;28;24525;-56
2022/02/21 09:53:15;;;;;;;3.15;1.33;;;;;;;;;;5065510;28;24486;-56
2022/02/21 09:55:41;;;;;;;3.03;1.40;;;;;;;;;;5065154;28;24937;-56
2022/02/21 09:58:07;;;;;;;2.05;1.30;;;;;;;;;;5065492;28;24581;-56
2022/02/21 10:00:32;;;;;;;3.73;1.47;;;;;;;;;;5065133;28;25092;-56
2022/02/21 10:02:57;;;;;;;2.00;1.10;;;;;;;;;;5067028;28;25052;-56
2022/02/21 10:05:26;;;;;;;2.30;1.30;;;;;;;;;;5064511;28;24566;-56
2022/02/21 10:07:52;;;;;;;3.00;1.40;;;;;;;;;;5066812;28;24448;-56
2022/02/21 10:10:18;;;;;;;1.67;1.08;;;;;;;;;;5046537;28;24435;-56
2022/02/21 10:12:46;;;;;;;2.00;1.10;;;;;;;;;;5044285;28;24875;-56
2022/02/21 10:15:12;;;;;;;3.33;1.40;;;;;;;;;;5046393;28;24407;-55
2022/02/21 10:17:37;;;;;;;2.10;1.13;;;;;;;;;;5046749;28;24671;-56
2022/02/21 10:20:04;;;;;;;3.40;1.20;;;;;;;;;;5046231;28;24932;-56
2022/02/21 10:22:32;;;;;;;3.90;1.27;;;;;;;;;;5044647;28;24399;-56
2022/02/21 10:24:58;;;;;;;2.25;1.15;;;;;;;;;;5064382;28;24496;-56
2022/02/21 10:27:24;;;;;;;3.90;1.10;;;;;;;;;;5064605;28;24929;-56
2022/02/21 10:29:54;;;;;;;2.28;1.10;;;;;;;;;;5066962;28;24402;-56
2022/02/21 10:32:23;;;;;;;3.03;1.10;;;;;;;;;;5062874;28;24426;-56
2022/02/21 10:34:49;;;;;;;1.83;0.80;;;;;;;;;;5045157;28;24403;-56
2022/02/21 10:37:18;;;;;;;1.85;0.98;;;;;;;;;;5048999;28;24467;-56
2022/02/21 10:39:43;;;;;;;1.45;0.90;;;;;;;;;;5065334;28;24391;-56
2022/02/21 10:42:09;;;;;;;1.57;0.90;;;;;;;;;;5064585;28;24830;-56
2022/02/21 10:44:38;;;;;;;2.20;0.90;;;;;;;;;;5064882;28;24457;-56
2022/02/21 10:47:06;;;;;;;2.00;1.00;;;;;;;;;;5065465;28;24967;-56
2022/02/21 10:49:32;;;;;;;1.88;0.80;;;;;;;;;;5064985;28;24447;-56
2022/02/21 10:51:59;;;;;;;2.67;0.90;;;;;;;;;;5061420;28;24458;-54
2022/02/21 10:54:35;;;;;;;3.08;0.90;;;;;;;;;;5044446;28;24453;-55
2022/02/21 10:57:01;;;;;;;4.38;1.10;;;;;;;;;;5049765;28;24557;-55
2022/02/21 10:59:27;;;;;;;1.70;0.90;;;;;;;;;;5069998;28;24509;-56
2022/02/21 11:01:53;;;;;;;3.47;1.00;;;;;;;;;;5064869;28;24419;-57
2022/02/21 11:04:19;;;;;;;2.15;0.85;;;;;;;;;;5048030;28;25444;-55
2022/02/21 11:06:44;;;;;;;2.30;1.00;;;;;;;;;;5049888;28;24453;-56
2022/02/21 11:09:11;;;;;;;2.00;0.83;;;;;;;;;;5048893;28;24476;-56
2022/02/21 11:11:40;;;;;;;2.25;1.30;;;;;;;;;;5052378;28;24435;-55
2022/02/21 11:14:05;;;;;;;1.80;1.10;;;;;;;;;;5069675;28;24457;-56
2022/02/21 11:16:32;;;;;;;1.50;0.90;;;;;;;;;;5066877;28;24417;-55
2022/02/21 11:18:58;;;;;;;1.63;0.80;;;;;;;;;;5068694;28;24921;-55
2022/02/21 11:21:23;;;;;;;1.20;0.80;;;;;;;;;;5066233;28;24434;-55
2022/02/21 11:23:49;;;;;;;1.47;0.87;;;;;;;;;;5048128;28;25037;-56
2022/02/21 11:26:17;;;;;;;2.47;0.98;;;;;;;;;;5049528;28;24427;-55
2022/02/21 11:28:49;;;;;;;3.15;1.05;;;;;;;;;;5048757;28;24403;-56
2022/02/21 11:31:18;;;;;;;1.70;1.00;;;;;;;;;;5049360;28;24424;-55
2022/02/21 11:33:56;;;;;;;2.30;0.80;;;;;;;;;;5047005;28;25051;-56
2022/02/21 11:36:22;;;;;;;1.50;0.93;;;;;;;;;;5049190;28;24486;-55
2022/02/21 11:38:47;;;;;;;2.10;0.90;;;;;;;;;;5051279;28;24535;-57
2022/02/21 11:41:13;;;;;;;1.37;1.10;;;;;;;;;;5063235;28;24835;-56
2022/02/21 11:43:43;;;;;;;1.48;1.08;;;;;;;;;;5048024;28;24491;-56
2022/02/21 11:46:21;;;;;;;2.15;1.00;;;;;;;;;;5048714;28;24446;-56
2022/02/21 11:48:54;;;;;;;2.00;1.20;;;;;;;;;;5046926;28;24415;-55
2022/02/21 11:51:30;;;;;;;2.65;1.40;;;;;;;;;;5049562;28;24510;-55
2022/02/21 11:54:16;;;;;;;1.17;0.90;;;;;;;;;;5048865;28;24755;-56
2022/02/21 11:56:50;;;;;;;2.17;1.13;;;;;;;;;;5049293;28;24418;-55
2022/02/21 11:59:23;;;;;;;2.90;1.10;;;;;;;;;;5049526;28;24810;-55
2022/02/21 12:01:51;;;;;;;2.90;1.17;;;;;;;;;;5049508;28;24401;-55
2022/02/21 12:04:17;;;;;;;2.25;1.10;;;;;;;;;;5048855;28;24395;-55
2022/02/21 12:06:56;;;;;;;3.17;1.00;;;;;;;;;;5049160;28;24418;-55
2022/02/21 12:09:21;;;;;;;4.60;1.50;;;;;;;;;;5048871;28;24404;-55
2022/02/21 12:11:46;;;;;;;2.40;1.40;;;;;;;;;;5049156;28;24816;-56
2022/02/21 12:14:11;;;;;;;2.03;1.20;;;;;;;;;;5048910;28;24574;-56
2022/02/21 12:16:56;;;;;;;1.20;1.05;;;;;;;;;;5049198;28;24941;-56
2022/02/21 12:19:29;;;;;;;3.00;1.38;;;;;;;;;;5048687;28;24404;-56
2022/02/21 12:22:11;;;;;;;2.72;1.25;;;;;;;;;;5049375;28;24477;-56
2022/02/21 12:24:56;;;;;;;3.25;1.20;;;;;;;;;;5049065;28;24498;-59
2022/02/21 12:27:21;;;;;;;2.65;1.20;;;;;;;;;;5048615;28;24449;-56
2022/02/21 12:29:46;;;;;;;4.40;1.60;;;;;;;;;;5048816;28;24399;-55
2022/02/21 12:32:12;;;;;;;2.60;1.30;;;;;;;;;;5048551;28;25027;-55
2022/02/21 12:34:38;;;;;;;2.93;1.30;;;;;;;;;;5046444;28;24464;-55
2022/02/21 12:37:12;;;;;;;2.38;1.10;;;;;;;;;;5049189;28;24442;-55
2022/02/21 12:39:43;;;;;;;4.25;1.55;;;;;;;;;;5060144;28;24989;-55
2022/02/21 12:42:08;;;;;;;1.80;1.10;;;;;;;;;;5068247;28;24438;-55
2022/02/21 12:44:34;;;;;;;2.33;1.13;;;;;;;;;;5068254;28;25110;-55
2022/02/21 12:47:05;;;;;;;2.77;1.20;;;;;;;;;;5068818;28;24480;-54
2022/02/21 12:49:33;;;;;;;2.10;1.33;;;;;;;;;;5068206;28;24724;-55
2022/02/21 12:52:07;;;;;;;2.45;1.30;;;;;;;;;;5068720;28;24564;-55
2022/02/21 12:54:35;;;;;;;3.30;1.20;;;;;;;;;;5067974;28;24390;-55
2022/02/21 12:57:04;;;;;;;2.15;1.35;;;;;;;;;;5068359;28;24383;-55
2022/02/21 12:59:31;;;;;;;2.87;1.40;;;;;;;;;;5068117;28;24554;-55
2022/02/21 13:01:57;;;;;;;1.43;1.20;;;;;;;;;;5068322;28;24437;-55
2022/02/21 13:04:23;;;;;;;4.10;1.50;;;;;;;;;;5067721;28;24406;-54
2022/02/21 13:06:49;;;;;;;2.97;1.20;;;;;;;;;;5068021;28;24709;-55
2022/02/21 13:09:17;;;;;;;2.42;1.20;;;;;;;;;;5067715;28;24517;-55
2022/02/21 13:11:44;;;;;;;2.47;1.10;;;;;;;;;;5068116;28;24434;-54
2022/02/21 13:14:09;;;;;;;3.00;1.30;;;;;;;;;;5067846;28;24417;-55
2022/02/21 13:16:35;;;;;;;2.25;1.30;;;;;;;;;;5067715;28;24403;-55
2022/02/21 13:19:02;;;;;;;2.45;1.30;;;;;;;;;;5067952;28;24917;-55
2022/02/21 13:21:38;;;;;;;2.00;1.10;;;;;;;;;;5066199;28;24546;-55
2022/02/21 13:24:05;;;;;;;2.60;1.00;;;;;;;;;;5065874;28;24452;-55
2022/02/21 13:26:41;;;;;;;2.15;1.13;;;;;;;;;;5067121;28;24415;-55
2022/02/21 13:29:06;;;;;;;4.70;1.50;;;;;;;;;;5067713;28;24816;-55
2022/02/21 13:31:41;;;;;;;2.60;1.20;;;;;;;;;;5067245;28;24430;-55
2022/02/21 13:34:06;;;;;;;2.42;1.40;;;;;;;;;;5067324;28;24985;-56
2022/02/21 13:36:31;;;;;;;3.00;1.10;;;;;;;;;;5067108;28;24391;-56
2022/02/21 13:38:56;;;;;;;2.43;1.00;;;;;;;;;;5067607;28;24836;-55
2022/02/21 13:41:22;;;;;;;2.40;1.00;;;;;;;;;;5067792;28;24468;-55
2022/02/21 13:43:47;;;;;;;2.97;1.30;;;;;;;;;;5066970;28;24742;-56
2022/02/21 13:46:12;;;;;;;3.80;1.20;;;;;;;;;;5060612;28;24442;-56
2022/02/21 13:48:45;;;;;;;1.38;1.10;;;;;;;;;;5044879;28;24401;-55
2022/02/21 13:51:17;;;;;;;3.63;1.27;;;;;;;;;;5053054;28;24463;-56
2022/02/21 13:53:42;;;;;;;3.05;1.50;;;;;;;;;;5065443;28;24397;-55
2022/02/21 13:56:13;;;;;;;2.73;1.37;;;;;;;;;;5066495;28;24884;-55
2022/02/21 13:58:40;;;;;;;3.05;1.25;;;;;;;;;;5064788;28;24991;-55
2022/02/21 14:01:06;;;;;;;2.30;1.17;;;;;;;;;;5065866;28;24801;-55
2022/02/21 14:03:40;;;;;;;4.03;1.50;;;;;;;;;;5065051;28;24395;-56
2022/02/21 14:06:06;;;;;;;2.50;1.33;;;;;;;;;;5057473;28;24984;-56
2022/02/21 14:08:45;;;;;;;2.78;1.50;;;;;;;;;;5045548;28;25019;-56
2022/02/21 14:11:11;;;;;;;2.58;1.20;;;;;;;;;;5056430;28;24435;-56
2022/02/21 14:13:37;;;;;;;1.30;1.17;;;;;;;;;;5065401;28;24479;-56
2022/02/21 14:16:03;;;;;;;1.75;1.25;;;;;;;;;;5056468;28;24426;-56
2022/02/21 14:18:28;;;;;;;2.80;1.33;;;;;;;;;;5045046;28;25032;-55
2022/02/21 14:20:53;;;;;;;3.60;1.70;;;;;;;;;;5046184;28;24427;-55
2022/02/21 14:23:18;;;;;;;2.90;1.60;;;;;;;;;;5045568;28;24426;-56
2022/02/21 14:25:43;;;;;;;3.00;1.27;;;;;;;;;;5046174;28;24985;-56
2022/02/21 14:28:09;;;;;;;1.70;1.07;;;;;;;;;;5043759;28;24964;-56
2022/02/21 14:30:35;;;;;;;2.72;1.40;;;;;;;;;;5054021;28;25021;-55
2022/02/21 14:33:01;;;;;;;3.45;1.25;;;;;;;;;;5064909;28;24574;-55
2022/02/21 14:35:26;;;;;;;3.05;1.40;;;;;;;;;;5056816;28;24426;-56
2022/02/21 14:37:51;;;;;;;3.30;1.27;;;;;;;;;;5053927;28;24407;-55